createdAt,value
2023-01-10T00:02:03.624Z,4.67
2023-01-10T00:04:33.631Z,4.47
2023-01-10T00:07:02.124Z,4.43
2023-01-10T00:09:30.559Z,5.13
2023-01-10T00:12:28.231Z,4.47
2023-01-10T00:14:57.062Z,5.30
2023-01-10T00:17:25.497Z,4.80
2023-01-10T00:19:55.725Z,5.40
2023-01-10T00:22:25.308Z,5.00
2023-01-10T00:24:53.907Z,4.87
2023-01-10T00:27:23.802Z,5.07
2023-01-10T00:29:53.970Z,4.60
2023-01-10T00:32:22.788Z,4.40
2023-01-10T00:34:51.281Z,4.37
2023-01-10T00:37:21.107Z,5.43
2023-01-10T00:39:49.514Z,5.30
2023-01-10T00:42:35.371Z,4.80
2023-01-10T00:45:03.970Z,4.43
2023-01-10T00:47:32.397Z,5.43
2023-01-10T00:50:00.882Z,5.40
2023-01-10T00:52:31.126Z,4.60
2023-01-10T00:54:59.674Z,4.87
2023-01-10T00:57:28.127Z,3.67
2023-01-10T00:59:56.582Z,4.93
2023-01-10T01:02:25.123Z,4.47
2023-01-10T01:04:53.652Z,4.33
2023-01-10T01:07:22.008Z,4.43
2023-01-10T01:10:09.218Z,4.13
2023-01-10T01:12:37.698Z,3.70
2023-01-10T01:15:07.251Z,4.20
2023-01-10T01:17:35.768Z,4.37
2023-01-10T01:20:04.481Z,3.67
2023-01-10T01:22:33.152Z,3.50
2023-01-10T01:25:04.519Z,3.60
2023-01-10T01:27:33.396Z,4.37
2023-01-10T01:30:01.862Z,3.93
2023-01-10T01:32:30.331Z,4.33
2023-01-10T01:34:58.837Z,4.23
2023-01-10T01:37:27.500Z,3.90
2023-01-10T01:39:55.925Z,3.70
2023-01-10T01:42:29.856Z,4.20
2023-01-10T01:45:33.607Z,4.10
2023-01-10T01:48:11.003Z,4.13
2023-01-10T01:50:45.202Z,3.90
2023-01-10T01:53:20.190Z,3.63
2023-01-10T01:55:49.595Z,3.67
2023-01-10T01:58:23.227Z,3.77
2023-01-10T02:00:51.897Z,3.80
2023-01-10T02:03:20.758Z,4.20
2023-01-10T02:05:49.592Z,4.50
2023-01-10T02:08:18.190Z,4.50
2023-01-10T02:10:52.815Z,5.70
2023-01-10T02:13:25.943Z,4.63
2023-01-10T02:15:54.956Z,3.90
2023-01-10T02:18:24.530Z,5.03
2023-01-10T02:21:09.565Z,4.60
2023-01-10T02:24:11.808Z,5.40
2023-01-10T02:27:36.007Z,5.47
2023-01-10T02:30:48.626Z,5.60
2023-01-10T02:33:24.906Z,4.00
2023-01-10T02:36:11.055Z,3.93
2023-01-10T02:38:53.307Z,4.20
2023-01-10T02:41:32.013Z,4.17
2023-01-10T02:44:08.707Z,4.80
2023-01-10T02:46:40.942Z,4.80
2023-01-10T02:49:10.920Z,3.80
2023-01-10T02:51:41.528Z,4.43
2023-01-10T02:54:14.931Z,3.80
2023-01-10T02:57:17.681Z,4.07
2023-01-10T03:00:20.266Z,3.27
2023-01-10T03:03:09.439Z,3.97
2023-01-10T03:05:54.030Z,3.77
2023-01-10T03:08:32.398Z,3.60
2023-01-10T03:11:03.423Z,4.20
2023-01-10T03:13:39.205Z,4.10
2023-01-10T03:16:11.625Z,4.03
2023-01-10T03:18:46.318Z,4.53
2023-01-10T03:21:17.876Z,4.70
2023-01-10T03:23:48.607Z,4.43
2023-01-10T03:26:18.868Z,4.70
2023-01-10T03:28:51.098Z,4.33
2023-01-10T03:31:24.736Z,4.80
2023-01-10T03:33:53.625Z,3.93
2023-01-10T03:36:31.385Z,3.53
2023-01-10T03:39:07.531Z,3.67
2023-01-10T03:41:42.002Z,4.00
2023-01-10T03:44:36.906Z,4.43
2023-01-10T03:47:09.489Z,4.43
2023-01-10T03:49:41.166Z,4.73
2023-01-10T03:52:15.773Z,4.73
2023-01-10T03:54:45.355Z,5.67
2023-01-10T03:57:19.245Z,5.57
2023-01-10T03:59:48.705Z,4.03
2023-01-10T04:02:17.085Z,4.57
2023-01-10T04:04:45.431Z,4.80
2023-01-10T04:07:15.276Z,3.70
2023-01-10T04:09:43.764Z,4.70
2023-01-10T04:12:12.234Z,3.90
2023-01-10T04:14:40.689Z,3.90
2023-01-10T04:17:09.244Z,3.97
2023-01-10T04:19:37.614Z,4.70
2023-01-10T04:22:07.054Z,3.70
2023-01-10T04:24:37.115Z,5.03
2023-01-10T04:27:06.329Z,4.53
2023-01-10T04:29:34.715Z,4.20
2023-01-10T04:32:03.169Z,5.00
2023-01-10T04:34:31.765Z,4.77
2023-01-10T04:37:00.232Z,4.93
2023-01-10T04:39:28.673Z,6.53
2023-01-10T04:41:58.497Z,3.93
2023-01-10T04:44:26.928Z,4.77
2023-01-10T04:46:55.392Z,4.93
2023-01-10T04:49:23.758Z,3.93
2023-01-10T04:51:52.146Z,4.03
2023-01-10T04:54:22.294Z,5.33
2023-01-10T04:56:50.916Z,3.70
2023-01-10T04:59:20.873Z,3.93
2023-01-10T05:01:49.411Z,4.07
2023-01-10T05:04:20.109Z,4.30
2023-01-10T05:06:49.536Z,4.73
2023-01-10T05:09:18.033Z,3.90
2023-01-10T05:11:46.403Z,5.03
2023-01-10T05:14:14.862Z,3.80
2023-01-10T05:16:44.745Z,5.37
2023-01-10T05:19:13.424Z,4.83
2023-01-10T05:21:41.997Z,4.70
2023-01-10T05:24:11.019Z,4.70
2023-01-10T05:26:39.563Z,4.27
2023-01-10T05:29:08.025Z,5.27
2023-01-10T05:31:36.486Z,4.50
2023-01-10T05:34:06.428Z,4.20
2023-01-10T05:36:34.724Z,4.17
2023-01-10T05:39:03.179Z,5.00
2023-01-10T05:41:31.724Z,4.60
2023-01-10T05:44:00.210Z,4.63
2023-01-10T05:46:28.565Z,4.67
2023-01-10T05:48:56.929Z,4.40
2023-01-10T05:51:26.880Z,5.03
2023-01-10T05:53:55.495Z,5.10
2023-01-10T05:56:24.001Z,4.30
2023-01-10T05:59:00.932Z,4.50
2023-01-10T06:01:34.008Z,5.23
2023-01-10T06:04:02.429Z,4.43
2023-01-10T06:06:32.964Z,5.13
2023-01-10T06:09:01.589Z,4.63
2023-01-10T06:11:30.337Z,4.67
2023-01-10T06:13:58.794Z,4.43
2023-01-10T06:16:27.334Z,4.83
2023-01-10T06:18:56.126Z,3.83
2023-01-10T06:21:24.459Z,4.33
2023-01-10T06:23:54.535Z,5.30
2023-01-10T06:26:23.034Z,4.20
2023-01-10T06:28:51.578Z,5.30
2023-01-10T06:31:22.497Z,4.83
2023-01-10T06:33:52.155Z,5.13
2023-01-10T06:36:20.871Z,4.67
2023-01-10T06:38:49.389Z,5.37
2023-01-10T06:41:19.266Z,5.10
2023-01-10T06:43:48.668Z,5.40
2023-01-10T06:46:19.577Z,4.67
2023-01-10T06:48:49.072Z,5.83
2023-01-10T06:51:20.516Z,5.17
2023-01-10T06:53:49.528Z,5.13
2023-01-10T06:56:19.365Z,4.73
2023-01-10T06:58:49.961Z,5.23
2023-01-10T07:01:20.638Z,5.43
2023-01-10T07:03:50.080Z,6.77
2023-01-10T07:06:18.639Z,4.60
2023-01-10T07:08:48.352Z,5.83
2023-01-10T07:11:17.847Z,5.10
2023-01-10T07:13:47.901Z,6.67
2023-01-10T07:16:17.732Z,4.40
2023-01-10T07:18:46.448Z,5.50
2023-01-10T07:21:16.816Z,4.57
2023-01-10T07:23:45.248Z,5.10
2023-01-10T07:26:17.931Z,6.60
2023-01-10T07:28:51.565Z,5.13
2023-01-10T07:31:23.057Z,5.80
2023-01-10T07:33:52.369Z,5.50
2023-01-10T07:36:21.579Z,5.43
2023-01-10T07:38:50.345Z,5.80
2023-01-10T07:41:18.681Z,6.13
2023-01-10T07:43:49.782Z,6.63
2023-01-10T07:46:18.354Z,5.23
2023-01-10T07:48:49.193Z,5.43
2023-01-10T07:51:17.898Z,5.23
2023-01-10T07:53:46.364Z,4.63
2023-01-10T07:56:15.287Z,5.20
2023-01-10T07:58:48.302Z,6.50
2023-01-10T08:01:16.968Z,5.17
2023-01-10T08:03:45.465Z,6.13
2023-01-10T08:06:16.615Z,6.03
2023-01-10T08:08:45.258Z,5.83
2023-01-10T08:11:13.786Z,6.70
2023-01-10T08:13:42.342Z,5.63
2023-01-10T08:16:12.516Z,5.80
2023-01-10T08:18:43.129Z,5.97
2023-01-10T08:21:11.738Z,5.23
2023-01-10T08:23:40.368Z,5.60
2023-01-10T08:26:08.933Z,5.13
2023-01-10T08:28:37.561Z,4.83
2023-01-10T08:31:07.580Z,6.00
2023-01-10T08:33:39.251Z,5.73
2023-01-10T08:36:15.416Z,6.27
2023-01-10T08:38:43.886Z,5.60
2023-01-10T08:41:12.412Z,6.00
2023-01-10T08:43:41.665Z,6.03
2023-01-10T08:46:10.204Z,5.90
2023-01-10T08:48:40.250Z,6.17
2023-01-10T08:51:10.365Z,5.97
2023-01-10T08:53:40.640Z,6.47
2023-01-10T08:56:10.048Z,5.50
2023-01-10T08:58:38.587Z,5.43
2023-01-10T09:01:07.737Z,6.77
2023-01-10T09:03:36.377Z,6.00
2023-01-10T09:06:07.063Z,7.53
2023-01-10T09:08:36.230Z,5.77
2023-01-10T09:11:06.142Z,5.57
2023-01-10T09:13:35.336Z,6.00
2023-01-10T09:16:04.036Z,5.27
2023-01-10T09:18:32.418Z,7.17
2023-01-10T09:21:01.523Z,6.77
2023-01-10T09:23:31.399Z,7.50
2023-01-10T09:26:02.965Z,6.53
2023-01-10T09:28:32.071Z,5.90
2023-01-10T09:31:01.399Z,5.53
2023-01-10T09:33:44.961Z,6.10
2023-01-10T09:36:15.908Z,5.33
2023-01-10T09:38:46.222Z,5.77
2023-01-10T09:41:36.983Z,5.80
2023-01-10T09:44:07.386Z,5.80
2023-01-10T09:46:44.781Z,6.20
2023-01-10T09:49:23.681Z,6.13
2023-01-10T09:51:54.458Z,5.73
2023-01-10T09:54:29.785Z,5.70
2023-01-10T09:57:01.903Z,6.50
2023-01-10T09:59:41.644Z,6.57
2023-01-10T10:02:24.861Z,6.03
2023-01-10T10:05:06.019Z,5.77
2023-01-10T10:07:34.804Z,6.07
2023-01-10T10:10:06.840Z,6.00
2023-01-10T10:12:42.900Z,4.43
2023-01-10T10:15:21.655Z,5.27
2023-01-10T10:18:01.948Z,5.73
2023-01-10T10:20:41.130Z,4.83
2023-01-10T10:23:35.777Z,5.33
2023-01-10T10:26:10.979Z,5.17
2023-01-10T10:28:55.813Z,6.23
2023-01-10T10:31:39.991Z,5.27
2023-01-10T10:34:15.364Z,5.17
2023-01-10T10:36:51.633Z,4.77
2023-01-10T10:39:25.057Z,5.13
2023-01-10T10:41:56.924Z,5.20
2023-01-10T10:44:35.506Z,5.20
2023-01-10T10:47:04.099Z,5.47
2023-01-10T10:49:40.056Z,4.83
2023-01-10T10:52:18.694Z,4.90
2023-01-10T10:54:47.917Z,5.33
2023-01-10T10:57:17.811Z,5.13
2023-01-10T10:59:48.878Z,4.33
2023-01-10T11:02:26.802Z,6.03
2023-01-10T11:04:58.852Z,5.23
2023-01-10T11:07:30.992Z,5.13
2023-01-10T11:10:31.924Z,5.80
2023-01-10T11:13:03.262Z,5.60
2023-01-10T11:15:40.867Z,5.57
2023-01-10T11:18:13.653Z,4.80
2023-01-10T11:20:50.633Z,5.90
2023-01-10T11:23:31.995Z,5.07
2023-01-10T11:26:00.643Z,5.40
2023-01-10T11:28:34.718Z,4.77
2023-01-10T11:31:04.842Z,5.80
2023-01-10T11:33:36.446Z,4.80
2023-01-10T11:36:07.237Z,5.70
2023-01-10T11:38:36.115Z,5.63
2023-01-10T11:41:06.712Z,5.03
2023-01-10T11:43:38.235Z,4.33
2023-01-10T11:46:14.659Z,6.00
2023-01-10T11:51:38.339Z,5.10
2023-01-10T11:54:11.516Z,4.80
2023-01-10T11:56:43.646Z,4.93
2023-01-10T11:59:16.672Z,5.00
2023-01-10T12:01:49.257Z,4.93
2023-01-10T12:04:18.763Z,4.70
2023-01-10T12:06:49.444Z,4.57
2023-01-10T12:09:36.177Z,4.50
2023-01-10T12:12:06.270Z,4.97
2023-01-10T12:14:36.224Z,4.90
2023-01-10T12:17:05.277Z,5.23
2023-01-10T12:19:34.370Z,6.17
2023-01-10T12:22:08.924Z,4.60
2023-01-10T12:24:45.161Z,4.80
2023-01-10T12:27:16.217Z,4.33
2023-01-10T12:29:53.461Z,4.80
2023-01-10T12:32:27.528Z,5.57
2023-01-10T12:35:02.366Z,4.73
2023-01-10T12:37:41.820Z,4.47
2023-01-10T12:40:17.461Z,4.40
2023-01-10T12:43:11.028Z,4.20
2023-01-10T12:45:46.590Z,4.00
2023-01-10T12:48:23.257Z,4.50
2023-01-10T12:50:58.779Z,4.83
2023-01-10T12:53:32.992Z,5.07
2023-01-10T12:56:06.058Z,5.37
2023-01-10T12:58:44.227Z,4.20
2023-01-10T13:01:17.544Z,4.57
2023-01-10T13:03:48.128Z,4.03
2023-01-10T13:06:24.063Z,4.47
2023-01-10T13:08:52.935Z,4.93
2023-01-10T13:11:25.998Z,5.17
2023-01-10T13:14:00.882Z,5.07
2023-01-10T13:16:37.307Z,5.47
2023-01-10T13:19:24.667Z,4.83
2023-01-10T13:22:20.443Z,4.73
2023-01-10T13:25:00.985Z,4.80
2023-01-10T13:27:33.604Z,4.40
2023-01-10T13:30:03.435Z,4.00
2023-01-10T13:32:36.509Z,4.70
2023-01-10T13:35:16.154Z,4.17
2023-01-10T13:37:52.121Z,4.07
2023-01-10T13:40:26.015Z,4.10
2023-01-10T13:43:34.472Z,4.03
2023-01-10T13:46:38.480Z,3.83
2023-01-10T13:49:28.747Z,3.93
2023-01-10T13:52:40.193Z,4.03
2023-01-10T13:55:34.587Z,3.60
2023-01-10T13:58:05.838Z,4.03
2023-01-10T14:01:11.540Z,4.37
2023-01-10T14:03:49.005Z,4.30
2023-01-10T14:06:55.258Z,4.13
2023-01-10T14:09:44.668Z,4.13
2023-01-10T14:12:25.198Z,4.00
2023-01-10T14:14:59.440Z,3.67
2023-01-10T14:17:30.491Z,4.23
2023-01-10T14:20:04.370Z,4.93
2023-01-10T14:22:36.156Z,4.03
2023-01-10T14:25:07.509Z,4.43
2023-01-10T14:27:45.170Z,5.30
2023-01-10T14:30:20.709Z,4.87
2023-01-10T14:32:52.242Z,4.00
2023-01-10T14:35:23.687Z,4.63
2023-01-10T14:37:57.287Z,3.77
2023-01-10T14:40:35.566Z,3.80
2023-01-10T14:43:08.113Z,4.30
2023-01-10T14:45:41.279Z,3.80
2023-01-10T14:48:24.804Z,3.77
2023-01-10T14:50:53.452Z,4.33
2023-01-10T14:53:31.348Z,4.37
2023-01-10T14:55:59.971Z,3.50
2023-01-10T14:58:28.491Z,4.60
2023-01-10T15:00:57.854Z,4.03
2023-01-10T15:03:27.001Z,4.67
2023-01-10T15:05:58.687Z,4.07
2023-01-10T15:08:30.494Z,4.53
2023-01-10T15:11:05.924Z,3.23
2023-01-10T15:13:42.160Z,3.37
2023-01-10T15:16:18.889Z,4.33
2023-01-10T15:18:48.695Z,4.13
2023-01-10T15:21:22.229Z,4.20
2023-01-10T15:23:52.566Z,4.83
2023-01-10T15:26:27.707Z,4.73
2023-01-10T15:29:13.704Z,4.37
2023-01-10T15:31:44.557Z,4.27
2023-01-10T15:34:18.295Z,3.93
2023-01-10T15:36:50.093Z,5.83
2023-01-10T15:39:25.246Z,3.27
2023-01-10T15:41:59.314Z,3.60
2023-01-10T15:44:40.085Z,4.20
2023-01-10T15:47:40.200Z,4.77
2023-01-10T15:50:24.236Z,4.50
2023-01-10T15:52:54.891Z,4.07
2023-01-10T15:55:40.694Z,4.03
2023-01-10T15:58:18.882Z,4.23
2023-01-10T16:00:48.376Z,4.63
2023-01-10T16:03:24.935Z,4.73
2023-01-10T16:05:56.476Z,4.80
2023-01-10T16:08:27.130Z,3.87
2023-01-10T16:11:01.558Z,4.40
2023-01-10T16:13:29.244Z,3.60
2023-01-10T16:15:57.798Z,5.00
2023-01-10T16:18:27.274Z,4.07
2023-01-10T16:20:58.947Z,4.00
2023-01-10T16:23:31.840Z,5.10
2023-01-10T16:26:03.946Z,3.67
2023-01-10T16:28:36.297Z,4.17
2023-01-10T16:31:06.561Z,3.70
2023-01-10T16:33:37.656Z,3.37
2023-01-10T16:36:16.154Z,2.80
2023-01-10T16:38:44.760Z,4.00
2023-01-10T16:41:33.339Z,3.73
2023-01-10T16:44:01.916Z,3.10
2023-01-10T16:46:31.221Z,3.30
2023-01-10T16:49:00.155Z,3.17
2023-01-10T16:51:32.804Z,3.00
2023-01-10T16:54:01.555Z,3.20
2023-01-10T16:56:31.782Z,3.37
2023-01-10T16:59:00.302Z,3.30
2023-01-10T17:01:31.899Z,3.50
2023-01-10T17:04:01.486Z,3.27
2023-01-10T17:06:30.011Z,3.30
2023-01-10T17:08:58.547Z,2.80
2023-01-10T17:11:30.382Z,3.27
2023-01-10T17:14:01.211Z,2.73
2023-01-10T17:16:29.907Z,3.27
2023-01-10T17:18:58.456Z,2.83
2023-01-10T17:21:27.054Z,2.90
2023-01-10T17:23:55.627Z,2.30
2023-01-10T17:26:24.281Z,2.97
2023-01-10T17:28:52.797Z,3.10
2023-01-10T17:31:22.612Z,2.70
2023-01-10T17:33:51.556Z,2.57
2023-01-10T17:36:21.131Z,2.33
2023-01-10T17:38:49.928Z,2.87
2023-01-10T17:41:18.388Z,2.67
2023-01-10T17:43:46.913Z,2.90
2023-01-10T17:46:17.791Z,2.60
2023-01-10T17:48:47.782Z,2.90
2023-01-10T17:51:17.500Z,2.87
2023-01-10T17:53:45.897Z,2.90
2023-01-10T17:56:14.588Z,2.70
2023-01-10T17:58:43.130Z,2.73
2023-01-10T18:01:20.861Z,2.70
2023-01-10T18:03:53.148Z,2.60
2023-01-10T18:06:24.670Z,2.77
2023-01-10T18:08:53.977Z,3.50
2023-01-10T18:11:22.947Z,2.50
2023-01-10T18:13:51.589Z,2.63
2023-01-10T18:16:20.085Z,2.17
2023-01-10T18:18:48.581Z,2.90
2023-01-10T18:21:20.301Z,2.40
2023-01-10T18:23:50.061Z,2.20
2023-01-10T18:26:19.861Z,2.50
2023-01-10T18:28:48.273Z,2.30
2023-01-10T18:31:18.725Z,2.17
2023-01-10T18:33:48.646Z,2.03
2023-01-10T18:36:21.960Z,2.50
2023-01-10T18:38:51.059Z,2.50
2023-01-10T18:41:20.864Z,2.50
2023-01-10T18:43:49.558Z,2.77
2023-01-10T18:46:20.341Z,2.30
2023-01-10T18:48:50.413Z,1.90
2023-01-10T18:51:21.818Z,2.10
2023-01-10T18:53:52.886Z,2.10
2023-01-10T18:56:21.548Z,2.10
2023-01-10T18:58:50.132Z,1.93
2023-01-10T19:01:22.251Z,2.53
2023-01-10T19:03:51.330Z,2.43
2023-01-10T19:06:22.960Z,1.93
2023-01-10T19:08:52.663Z,1.97
2023-01-10T19:11:21.673Z,1.90
2023-01-10T19:13:53.333Z,2.10
2023-01-10T19:16:23.991Z,2.47
2023-01-10T19:18:54.566Z,2.27
2023-01-10T19:21:25.898Z,3.03
2023-01-10T19:23:56.725Z,2.10
2023-01-10T19:26:25.919Z,1.67
2023-01-10T19:28:54.727Z,1.43
2023-01-10T19:31:25.575Z,1.53
2023-01-10T19:33:54.601Z,1.43
2023-01-10T19:36:25.716Z,1.83
2023-01-10T19:38:58.808Z,2.17
2023-01-10T19:41:29.799Z,1.70
2023-01-10T19:43:59.141Z,1.70
2023-01-10T19:46:28.248Z,1.30
2023-01-10T19:48:57.454Z,1.50
2023-01-10T19:51:27.540Z,1.80
2023-01-10T19:53:56.103Z,1.27
2023-01-10T19:56:24.714Z,1.10
2023-01-10T19:58:55.979Z,1.40
2023-01-10T20:01:26.840Z,1.43
2023-01-10T20:03:58.655Z,1.10
2023-01-10T20:06:30.236Z,1.17
2023-01-10T20:08:59.440Z,1.57
2023-01-10T20:11:37.338Z,1.23
2023-01-10T20:14:06.378Z,1.03
2023-01-10T20:16:35.201Z,1.20
2023-01-10T20:19:05.546Z,1.10
2023-01-10T20:21:37.086Z,0.70
2023-01-10T20:24:09.427Z,0.73
2023-01-10T20:26:37.973Z,0.73
2023-01-10T20:29:07.065Z,0.80
2023-01-10T20:31:36.027Z,0.53
2023-01-10T20:34:04.738Z,1.00
2023-01-10T20:36:33.492Z,0.70
2023-01-10T20:39:03.502Z,0.77
2023-01-10T20:41:32.713Z,0.70
2023-01-10T20:44:01.329Z,0.93
2023-01-10T20:46:32.986Z,0.67
2023-01-10T20:49:03.233Z,0.53
2023-01-10T20:51:33.567Z,0.57
2023-01-10T20:54:05.992Z,0.73
2023-01-10T20:56:35.431Z,1.30
2023-01-10T20:59:04.297Z,1.00
2023-01-10T21:01:35.113Z,0.70
2023-01-10T21:04:05.570Z,0.80
2023-01-10T21:06:34.744Z,0.90
2023-01-10T21:09:05.329Z,0.53
2023-01-10T21:11:44.477Z,0.90
2023-01-10T21:14:21.050Z,1.00
2023-01-10T21:16:50.603Z,0.80
2023-01-10T21:19:20.564Z,1.00
2023-01-10T21:21:49.348Z,1.00
2023-01-10T21:24:23.091Z,0.70
2023-01-10T21:26:52.020Z,0.90
2023-01-10T21:29:20.732Z,1.10
2023-01-10T21:31:49.353Z,0.90
2023-01-10T21:34:17.979Z,1.30
2023-01-10T21:36:46.629Z,0.93
2023-01-10T21:39:18.125Z,1.20
2023-01-10T21:42:08.422Z,1.30
2023-01-10T21:44:37.456Z,1.20
2023-01-10T21:47:06.677Z,1.23
2023-01-10T21:49:35.348Z,1.50
2023-01-10T21:52:03.813Z,1.00
2023-01-10T21:54:34.913Z,1.17
2023-01-10T21:57:05.167Z,0.83
2023-01-10T21:59:34.148Z,0.80
2023-01-10T22:02:02.723Z,0.90
2023-01-10T22:04:31.343Z,0.93
2023-01-10T22:07:00.202Z,0.83
2023-01-10T22:09:29.448Z,0.80
2023-01-10T22:11:58.063Z,1.10
2023-01-10T22:14:28.077Z,1.13
2023-01-10T22:16:56.853Z,0.90
2023-01-10T22:19:25.344Z,0.73
2023-01-10T22:21:53.927Z,0.87
2023-01-10T22:24:22.539Z,0.73
2023-01-10T22:26:54.104Z,0.70
2023-01-10T22:29:22.806Z,0.70
2023-01-10T22:31:53.489Z,0.90
2023-01-10T22:34:22.885Z,1.00
2023-01-10T22:36:51.692Z,0.97
2023-01-10T22:39:20.359Z,0.80
2023-01-10T22:41:49.020Z,0.70
2023-01-10T22:44:20.305Z,0.80
2023-01-10T22:46:50.993Z,0.93
2023-01-10T22:49:21.630Z,0.90
2023-01-10T22:51:50.461Z,0.70
2023-01-10T22:54:19.195Z,0.83
2023-01-10T22:56:48.515Z,1.00
2023-01-10T22:59:26.906Z,1.37
2023-01-10T23:01:56.040Z,1.10
2023-01-10T23:04:26.306Z,1.10
2023-01-10T23:06:56.859Z,0.80
2023-01-10T23:09:25.696Z,0.83
2023-01-10T23:11:54.290Z,0.93
2023-01-10T23:14:22.870Z,1.00
2023-01-10T23:16:51.491Z,1.27
2023-01-10T23:19:20.353Z,1.10
2023-01-10T23:21:51.491Z,0.90
2023-01-10T23:24:20.319Z,0.70
2023-01-10T23:26:50.556Z,1.20
2023-01-10T23:29:19.491Z,0.93
2023-01-10T23:31:50.156Z,1.00
2023-01-10T23:34:18.887Z,1.20
2023-01-10T23:36:47.332Z,1.30
2023-01-10T23:39:19.107Z,1.10
2023-01-10T23:41:47.689Z,0.87
2023-01-10T23:44:16.253Z,0.83
2023-01-10T23:46:44.828Z,0.53
2023-01-10T23:49:13.551Z,1.17
2023-01-10T23:51:42.489Z,1.00
2023-01-10T23:54:11.160Z,0.70
2023-01-10T23:56:41.086Z,0.90
2023-01-10T23:59:09.523Z,0.90
